sensor_id;sensor_type;location;lat;lon;timestamp;pressure;altitude;pressure_sealevel;temperature;humidity
50859;BME280;36826;47.514;19.056;2023-02-12T00:01:09;101361.03;;;14.34;44.42
50859;BME280;36826;47.514;19.056;2023-02-12T00:03:35;101362.13;;;14.53;44.14
50859;BME280;36826;47.514;19.056;2023-02-12T00:06:01;101358.28;;;15.08;43.60
50859;BME280;36826;47.514;19.056;2023-02-12T00:08:26;101363.66;;;14.98;43.89
50859;BME280;36826;47.514;19.056;2023-02-12T00:10:51;101345.22;;;15.03;44.08
50859;BME280;36826;47.514;19.056;2023-02-12T00:13:17;101339.59;;;15.16;43.35
50859;BME280;36826;47.514;19.056;2023-02-12T00:15:42;101361.81;;;14.04;45.66
50859;BME280;36826;47.514;19.056;2023-02-12T00:18:08;101352.81;;;14.36;45.35
50859;BME280;36826;47.514;19.056;2023-02-12T00:20:34;101347.03;;;13.98;45.56
50859;BME280;36826;47.514;19.056;2023-02-12T00:23:00;101341.16;;;14.56;45.22
50859;BME280;36826;47.514;19.056;2023-02-12T00:25:25;101345.63;;;13.83;46.33
50859;BME280;36826;47.514;19.056;2023-02-12T00:27:51;101343.88;;;14.14;46.42
50859;BME280;36826;47.514;19.056;2023-02-12T00:30:16;101347.16;;;14.39;46.36
50859;BME280;36826;47.514;19.056;2023-02-12T00:32:41;101349.97;;;13.95;46.65
50859;BME280;36826;47.514;19.056;2023-02-12T00:35:08;101348.38;;;14.14;46.71
50859;BME280;36826;47.514;19.056;2023-02-12T00:37:34;101338.41;;;14.04;46.68
50859;BME280;36826;47.514;19.056;2023-02-12T00:39:59;101339.19;;;13.95;47.67
50859;BME280;36826;47.514;19.056;2023-02-12T00:42:24;101344.75;;;13.82;47.26
50859;BME280;36826;47.514;19.056;2023-02-12T00:44:50;101339.78;;;14.41;46.98
50859;BME280;36826;47.514;19.056;2023-02-12T00:47:15;101340.59;;;13.45;48.40
50859;BME280;36826;47.514;19.056;2023-02-12T00:49:41;101333.41;;;14.00;46.90
50859;BME280;36826;47.514;19.056;2023-02-12T00:52:06;101330.25;;;13.62;48.13
50859;BME280;36826;47.514;19.056;2023-02-12T00:54:32;101325.09;;;13.15;48.74
50859;BME280;36826;47.514;19.056;2023-02-12T00:56:57;101333.31;;;12.45;51.03
50859;BME280;36826;47.514;19.056;2023-02-12T00:59:23;101328.66;;;13.92;48.88
50859;BME280;36826;47.514;19.056;2023-02-12T01:01:49;101332.97;;;13.39;49.57
50859;BME280;36826;47.514;19.056;2023-02-12T01:04:14;101329.66;;;14.12;48.19
50859;BME280;36826;47.514;19.056;2023-02-12T01:06:40;101331.53;;;14.33;47.36
50859;BME280;36826;47.514;19.056;2023-02-12T01:09:05;101341.69;;;13.43;49.06
50859;BME280;36826;47.514;19.056;2023-02-12T01:11:30;101352.06;;;13.36;49.92
50859;BME280;36826;47.514;19.056;2023-02-12T01:13:56;101353.81;;;13.14;50.04
50859;BME280;36826;47.514;19.056;2023-02-12T01:16:21;101349.78;;;13.75;48.63
50859;BME280;36826;47.514;19.056;2023-02-12T01:18:47;101333.75;;;14.49;47.40
50859;BME280;36826;47.514;19.056;2023-02-12T01:21:16;101349.38;;;13.36;48.87
50859;BME280;36826;47.514;19.056;2023-02-12T01:23:43;101339.91;;;14.39;47.31
50859;BME280;36826;47.514;19.056;2023-02-12T01:26:09;101332.44;;;13.68;48.59
50859;BME280;36826;47.514;19.056;2023-02-12T01:28:38;101335.50;;;13.96;48.37
50859;BME280;36826;47.514;19.056;2023-02-12T01:31:17;101336.28;;;14.08;47.80
50859;BME280;36826;47.514;19.056;2023-02-12T01:33:43;101317.13;;;13.47;49.05
50859;BME280;36826;47.514;19.056;2023-02-12T01:36:11;101316.53;;;13.98;48.04
50859;BME280;36826;47.514;19.056;2023-02-12T01:38:36;101301.84;;;13.69;48.68
50859;BME280;36826;47.514;19.056;2023-02-12T01:41:03;101308.34;;;13.67;48.99
50859;BME280;36826;47.514;19.056;2023-02-12T01:43:28;101276.09;;;13.76;48.44
50859;BME280;36826;47.514;19.056;2023-02-12T01:45:54;101285.16;;;13.54;50.02
50859;BME280;36826;47.514;19.056;2023-02-12T01:48:19;101282.94;;;12.93;50.10
50859;BME280;36826;47.514;19.056;2023-02-12T01:50:46;101279.09;;;13.62;49.40
50859;BME280;36826;47.514;19.056;2023-02-12T01:53:12;101289.28;;;13.58;48.75
50859;BME280;36826;47.514;19.056;2023-02-12T01:55:44;101291.44;;;13.97;48.21
50859;BME280;36826;47.514;19.056;2023-02-12T01:58:10;101290.06;;;14.24;47.30
50859;BME280;36826;47.514;19.056;2023-02-12T02:00:35;101307.06;;;13.38;49.29
50859;BME280;36826;47.514;19.056;2023-02-12T02:03:01;101314.13;;;13.50;49.41
50859;BME280;36826;47.514;19.056;2023-02-12T02:05:30;101311.00;;;13.45;49.16
50859;BME280;36826;47.514;19.056;2023-02-12T02:07:57;101317.09;;;14.01;48.39
50859;BME280;36826;47.514;19.056;2023-02-12T02:10:23;101311.00;;;14.20;47.48
50859;BME280;36826;47.514;19.056;2023-02-12T02:12:48;101303.63;;;14.43;46.81
50859;BME280;36826;47.514;19.056;2023-02-12T02:15:32;101302.28;;;14.07;48.08
50859;BME280;36826;47.514;19.056;2023-02-12T02:26:03;101319.38;;;14.17;48.02
50859;BME280;36826;47.514;19.056;2023-02-12T02:33:53;101336.69;;;14.03;48.44
50859;BME280;36826;47.514;19.056;2023-02-12T02:36:23;101333.56;;;13.98;48.26
50859;BME280;36826;47.514;19.056;2023-02-12T02:38:51;101340.72;;;13.76;49.03
50859;BME280;36826;47.514;19.056;2023-02-12T02:44:02;101344.59;;;14.37;48.59
50859;BME280;36826;47.514;19.056;2023-02-12T02:46:30;101353.91;;;14.12;48.58
50859;BME280;36826;47.514;19.056;2023-02-12T02:49:04;101349.66;;;14.09;49.42
50859;BME280;36826;47.514;19.056;2023-02-12T02:51:33;101354.56;;;14.04;48.91
50859;BME280;36826;47.514;19.056;2023-02-12T02:54:02;101355.03;;;14.09;48.88
50859;BME280;36826;47.514;19.056;2023-02-12T02:56:29;101345.94;;;13.89;49.36
50859;BME280;36826;47.514;19.056;2023-02-12T02:58:58;101352.81;;;13.61;50.31
50859;BME280;36826;47.514;19.056;2023-02-12T03:01:30;101359.69;;;14.07;49.56
50859;BME280;36826;47.514;19.056;2023-02-12T03:04:06;101346.38;;;13.41;50.00
50859;BME280;36826;47.514;19.056;2023-02-12T03:06:46;101359.44;;;13.45;49.96
50859;BME280;36826;47.514;19.056;2023-02-12T03:11:40;101361.75;;;14.36;48.62
50859;BME280;36826;47.514;19.056;2023-02-12T03:14:11;101376.88;;;14.70;47.41
50859;BME280;36826;47.514;19.056;2023-02-12T03:16:41;101385.06;;;14.05;48.85
50859;BME280;36826;47.514;19.056;2023-02-12T03:19:13;101385.22;;;14.24;48.19
50859;BME280;36826;47.514;19.056;2023-02-12T03:24:30;101400.88;;;15.04;46.51
50859;BME280;36826;47.514;19.056;2023-02-12T03:29:31;101395.28;;;15.68;45.65
50859;BME280;36826;47.514;19.056;2023-02-12T03:34:52;101405.75;;;15.51;45.40
50859;BME280;36826;47.514;19.056;2023-02-12T03:37:29;101413.53;;;15.03;45.96
50859;BME280;36826;47.514;19.056;2023-02-12T03:39:57;101418.19;;;15.32;46.03
50859;BME280;36826;47.514;19.056;2023-02-12T03:45:39;101421.38;;;14.64;46.82
50859;BME280;36826;47.514;19.056;2023-02-12T03:48:20;101416.84;;;15.17;46.05
50859;BME280;36826;47.514;19.056;2023-02-12T03:50:56;101430.06;;;15.10;46.17
50859;BME280;36826;47.514;19.056;2023-02-12T03:53:23;101426.59;;;15.39;45.78
50859;BME280;36826;47.514;19.056;2023-02-12T03:55:50;101422.78;;;15.42;45.77
50859;BME280;36826;47.514;19.056;2023-02-12T03:58:19;101430.88;;;15.11;45.59
50859;BME280;36826;47.514;19.056;2023-02-12T04:00:45;101432.47;;;15.64;44.97
50859;BME280;36826;47.514;19.056;2023-02-12T04:03:11;101436.28;;;15.42;45.64
50859;BME280;36826;47.514;19.056;2023-02-12T04:05:36;101430.72;;;15.02;46.08
50859;BME280;36826;47.514;19.056;2023-02-12T04:08:03;101446.16;;;15.22;46.38
50859;BME280;36826;47.514;19.056;2023-02-12T04:15:56;101459.41;;;15.34;45.59
50859;BME280;36826;47.514;19.056;2023-02-12T04:28:26;101488.03;;;15.16;46.63
50859;BME280;36826;47.514;19.056;2023-02-12T04:30:58;101489.66;;;15.28;46.21
50859;BME280;36826;47.514;19.056;2023-02-12T04:33:25;101484.78;;;15.22;45.74
50859;BME280;36826;47.514;19.056;2023-02-12T04:35:59;101486.34;;;14.94;45.98
50859;BME280;36826;47.514;19.056;2023-02-12T04:38:27;101482.06;;;15.22;46.40
50859;BME280;36826;47.514;19.056;2023-02-12T04:40:55;101493.03;;;15.30;45.45
50859;BME280;36826;47.514;19.056;2023-02-12T04:43:26;101494.50;;;15.03;46.60
50859;BME280;36826;47.514;19.056;2023-02-12T04:45:51;101498.25;;;13.93;48.36
50859;BME280;36826;47.514;19.056;2023-02-12T04:48:16;101501.84;;;14.80;46.59
50859;BME280;36826;47.514;19.056;2023-02-12T04:50:42;101503.41;;;13.28;50.76
50859;BME280;36826;47.514;19.056;2023-02-12T04:53:08;101515.22;;;14.49;48.14
50859;BME280;36826;47.514;19.056;2023-02-12T04:55:34;101515.69;;;14.87;46.89
50859;BME280;36826;47.514;19.056;2023-02-12T04:57:59;101516.06;;;14.50;48.12
50859;BME280;36826;47.514;19.056;2023-02-12T05:00:24;101521.09;;;15.18;46.90
50859;BME280;36826;47.514;19.056;2023-02-12T05:02:50;101529.81;;;15.00;46.55
50859;BME280;36826;47.514;19.056;2023-02-12T05:05:15;101524.84;;;15.27;46.01
50859;BME280;36826;47.514;19.056;2023-02-12T05:07:41;101539.50;;;14.38;47.93
50859;BME280;36826;47.514;19.056;2023-02-12T05:10:06;101533.34;;;15.22;46.05
50859;BME280;36826;47.514;19.056;2023-02-12T05:12:32;101539.22;;;15.06;46.44
50859;BME280;36826;47.514;19.056;2023-02-12T05:14:57;101540.38;;;14.38;47.68
50859;BME280;36826;47.514;19.056;2023-02-12T05:17:23;101545.09;;;14.90;46.12
50859;BME280;36826;47.514;19.056;2023-02-12T05:19:48;101552.94;;;14.05;47.63
50859;BME280;36826;47.514;19.056;2023-02-12T05:22:14;101554.69;;;14.83;46.82
50859;BME280;36826;47.514;19.056;2023-02-12T05:24:39;101556.91;;;15.20;46.02
50859;BME280;36826;47.514;19.056;2023-02-12T05:27:04;101576.41;;;15.02;46.83
50859;BME280;36826;47.514;19.056;2023-02-12T05:29:30;101566.88;;;14.22;48.55
50859;BME280;36826;47.514;19.056;2023-02-12T05:31:55;101571.72;;;14.51;47.58
50859;BME280;36826;47.514;19.056;2023-02-12T05:34:20;101568.31;;;14.81;47.19
50859;BME280;36826;47.514;19.056;2023-02-12T05:36:46;101565.34;;;14.40;47.22
50859;BME280;36826;47.514;19.056;2023-02-12T05:39:11;101575.59;;;14.69;47.41
50859;BME280;36826;47.514;19.056;2023-02-12T05:41:36;101574.81;;;15.21;46.36
50859;BME280;36826;47.514;19.056;2023-02-12T05:44:02;101572.59;;;15.26;45.85
50859;BME280;36826;47.514;19.056;2023-02-12T05:46:28;101571.13;;;15.22;46.30
50859;BME280;36826;47.514;19.056;2023-02-12T05:48:53;101580.28;;;15.31;45.65
50859;BME280;36826;47.514;19.056;2023-02-12T05:51:20;101583.00;;;15.10;46.64
50859;BME280;36826;47.514;19.056;2023-02-12T05:53:46;101597.28;;;15.00;46.73
50859;BME280;36826;47.514;19.056;2023-02-12T05:58:41;101604.69;;;14.87;47.06
50859;BME280;36826;47.514;19.056;2023-02-12T06:01:10;101613.41;;;15.33;46.26
50859;BME280;36826;47.514;19.056;2023-02-12T06:03:36;101622.16;;;15.46;45.79
50859;BME280;36826;47.514;19.056;2023-02-12T06:06:02;101631.19;;;15.36;45.63
50859;BME280;36826;47.514;19.056;2023-02-12T06:08:27;101625.22;;;15.63;45.46
50859;BME280;36826;47.514;19.056;2023-02-12T06:10:53;101631.50;;;15.42;46.43
50859;BME280;36826;47.514;19.056;2023-02-12T06:13:18;101631.50;;;15.63;45.85
50859;BME280;36826;47.514;19.056;2023-02-12T06:15:43;101633.88;;;14.82;46.99
50859;BME280;36826;47.514;19.056;2023-02-12T06:18:09;101628.53;;;15.67;45.60
50859;BME280;36826;47.514;19.056;2023-02-12T06:20:34;101627.16;;;15.72;45.70
50859;BME280;36826;47.514;19.056;2023-02-12T06:23:02;101638.47;;;15.02;47.42
50859;BME280;36826;47.514;19.056;2023-02-12T06:25:27;101635.41;;;14.75;46.94
50859;BME280;36826;47.514;19.056;2023-02-12T06:27:52;101631.88;;;15.80;45.82
50859;BME280;36826;47.514;19.056;2023-02-12T06:30:18;101628.44;;;16.09;44.38
50859;BME280;36826;47.514;19.056;2023-02-12T06:32:43;101645.50;;;16.00;45.21
50859;BME280;36826;47.514;19.056;2023-02-12T06:35:12;101639.09;;;15.79;45.71
50859;BME280;36826;47.514;19.056;2023-02-12T06:37:38;101623.66;;;18.17;42.62
50859;BME280;36826;47.514;19.056;2023-02-12T06:40:03;101635.16;;;22.55;35.70
50859;BME280;36826;47.514;19.056;2023-02-12T06:42:29;101652.84;;;21.80;34.92
50859;BME280;36826;47.514;19.056;2023-02-12T06:44:54;101657.31;;;22.60;34.15
50859;BME280;36826;47.514;19.056;2023-02-12T06:47:19;101654.59;;;23.68;32.11
50859;BME280;36826;47.514;19.056;2023-02-12T06:49:45;101652.25;;;24.77;31.60
50859;BME280;36826;47.514;19.056;2023-02-12T06:52:10;101667.16;;;25.61;29.66
50859;BME280;36826;47.514;19.056;2023-02-12T06:54:35;101675.91;;;23.11;32.46
50859;BME280;36826;47.514;19.056;2023-02-12T06:57:01;101668.69;;;24.62;31.84
50859;BME280;36826;47.514;19.056;2023-02-12T06:59:26;101675.94;;;24.33;30.94
50859;BME280;36826;47.514;19.056;2023-02-12T07:01:51;101680.41;;;26.21;28.66
50859;BME280;36826;47.514;19.056;2023-02-12T07:04:17;101683.03;;;26.49;29.44
50859;BME280;36826;47.514;19.056;2023-02-12T07:06:42;101685.03;;;30.21;25.61
50859;BME280;36826;47.514;19.056;2023-02-12T07:09:07;101697.31;;;30.63;24.43
50859;BME280;36826;47.514;19.056;2023-02-12T07:11:34;101703.84;;;31.11;23.64
50859;BME280;36826;47.514;19.056;2023-02-12T07:13:59;101711.66;;;28.89;25.08
50859;BME280;36826;47.514;19.056;2023-02-12T07:16:25;101708.19;;;31.18;24.15
50859;BME280;36826;47.514;19.056;2023-02-12T07:18:50;101703.66;;;32.31;22.87
50859;BME280;36826;47.514;19.056;2023-02-12T07:21:16;101721.78;;;33.09;21.77
50859;BME280;36826;47.514;19.056;2023-02-12T07:23:45;101730.00;;;29.08;24.21
50859;BME280;36826;47.514;19.056;2023-02-12T07:26:11;101739.56;;;31.55;23.41
50859;BME280;36826;47.514;19.056;2023-02-12T07:28:37;101741.53;;;30.07;24.03
50859;BME280;36826;47.514;19.056;2023-02-12T07:31:06;101744.94;;;32.73;22.26
50859;BME280;36826;47.514;19.056;2023-02-12T07:33:32;101750.44;;;33.43;21.63
50859;BME280;36826;47.514;19.056;2023-02-12T07:36:01;101746.56;;;34.62;20.53
50859;BME280;36826;47.514;19.056;2023-02-12T07:38:27;101744.84;;;34.83;20.25
50859;BME280;36826;47.514;19.056;2023-02-12T07:40:53;101754.38;;;32.08;22.09
50859;BME280;36826;47.514;19.056;2023-02-12T07:43:21;101748.59;;;33.49;21.35
50859;BME280;36826;47.514;19.056;2023-02-12T07:45:46;101755.63;;;32.94;21.49
50859;BME280;36826;47.514;19.056;2023-02-12T07:48:12;101753.28;;;32.44;21.99
50859;BME280;36826;47.514;19.056;2023-02-12T07:50:37;101748.50;;;34.17;20.91
50859;BME280;36826;47.514;19.056;2023-02-12T07:53:02;101752.47;;;34.66;20.07
50859;BME280;36826;47.514;19.056;2023-02-12T07:55:27;101754.63;;;36.95;19.05
50859;BME280;36826;47.514;19.056;2023-02-12T07:57:53;101747.00;;;38.20;18.21
50859;BME280;36826;47.514;19.056;2023-02-12T08:00:18;101748.22;;;37.78;18.50
50859;BME280;36826;47.514;19.056;2023-02-12T08:02:49;101752.31;;;38.82;17.48
50859;BME280;36826;47.514;19.056;2023-02-12T08:05:14;101763.34;;;34.06;20.21
50859;BME280;36826;47.514;19.056;2023-02-12T08:07:40;101764.31;;;29.77;23.34
50859;BME280;36826;47.514;19.056;2023-02-12T08:10:05;101766.63;;;31.10;22.72
50859;BME280;36826;47.514;19.056;2023-02-12T08:12:31;101774.69;;;27.46;25.90
50859;BME280;36826;47.514;19.056;2023-02-12T08:14:56;101765.31;;;28.34;25.15
50859;BME280;36826;47.514;19.056;2023-02-12T08:17:21;101770.47;;;26.04;27.20
50859;BME280;36826;47.514;19.056;2023-02-12T08:19:47;101758.16;;;25.28;28.10
50859;BME280;36826;47.514;19.056;2023-02-12T08:22:12;101763.56;;;25.00;28.67
50859;BME280;36826;47.514;19.056;2023-02-12T08:24:37;101769.00;;;25.80;28.10
50859;BME280;36826;47.514;19.056;2023-02-12T08:27:03;101768.63;;;26.88;27.28
50859;BME280;36826;47.514;19.056;2023-02-12T08:29:29;101776.81;;;30.05;24.57
50859;BME280;36826;47.514;19.056;2023-02-12T08:31:55;101780.38;;;30.86;23.03
50859;BME280;36826;47.514;19.056;2023-02-12T08:34:31;101776.66;;;31.89;22.80
50859;BME280;36826;47.514;19.056;2023-02-12T08:36:57;101788.34;;;32.15;22.25
50859;BME280;36826;47.514;19.056;2023-02-12T08:39:24;101781.53;;;32.70;21.80
50859;BME280;36826;47.514;19.056;2023-02-12T08:41:49;101786.56;;;31.97;21.75
50859;BME280;36826;47.514;19.056;2023-02-12T08:44:16;101796.81;;;31.12;22.85
50859;BME280;36826;47.514;19.056;2023-02-12T08:46:48;101789.50;;;31.60;22.40
50859;BME280;36826;47.514;19.056;2023-02-12T08:49:18;101786.75;;;30.50;23.07
50859;BME280;36826;47.514;19.056;2023-02-12T08:51:44;101791.34;;;31.66;23.12
50859;BME280;36826;47.514;19.056;2023-02-12T08:54:14;101797.91;;;32.31;21.94
50859;BME280;36826;47.514;19.056;2023-02-12T08:56:39;101791.81;;;34.52;20.53
50859;BME280;36826;47.514;19.056;2023-02-12T08:59:05;101798.63;;;36.62;18.86
50859;BME280;36826;47.514;19.056;2023-02-12T09:01:31;101812.38;;;36.90;18.65
50859;BME280;36826;47.514;19.056;2023-02-12T09:03:57;101812.25;;;37.74;18.23
50859;BME280;36826;47.514;19.056;2023-02-12T09:06:22;101813.06;;;37.74;17.90
50859;BME280;36826;47.514;19.056;2023-02-12T09:08:49;101812.16;;;38.15;18.00
50859;BME280;36826;47.514;19.056;2023-02-12T09:11:15;101823.53;;;36.79;18.23
50859;BME280;36826;47.514;19.056;2023-02-12T09:13:41;101813.88;;;37.23;18.04
50859;BME280;36826;47.514;19.056;2023-02-12T09:16:07;101827.34;;;37.73;17.97
50859;BME280;36826;47.514;19.056;2023-02-12T09:18:33;101828.94;;;34.85;19.29
50859;BME280;36826;47.514;19.056;2023-02-12T09:21:00;101829.88;;;36.64;18.51
50859;BME280;36826;47.514;19.056;2023-02-12T09:23:26;101836.97;;;36.34;18.74
50859;BME280;36826;47.514;19.056;2023-02-12T09:25:51;101834.41;;;36.81;17.99
50859;BME280;36826;47.514;19.056;2023-02-12T09:28:16;101844.94;;;36.63;18.44
50859;BME280;36826;47.514;19.056;2023-02-12T09:30:42;101839.94;;;36.65;18.21
50859;BME280;36826;47.514;19.056;2023-02-12T09:33:08;101843.13;;;35.61;18.99
50859;BME280;36826;47.514;19.056;2023-02-12T09:35:35;101849.75;;;36.25;18.42
50859;BME280;36826;47.514;19.056;2023-02-12T09:38:01;101846.91;;;34.55;19.63
50859;BME280;36826;47.514;19.056;2023-02-12T09:40:29;101846.16;;;36.88;18.10
50859;BME280;36826;47.514;19.056;2023-02-12T09:43:32;101851.88;;;37.29;17.93
50859;BME280;36826;47.514;19.056;2023-02-12T09:46:24;101846.06;;;37.78;17.34
50859;BME280;36826;47.514;19.056;2023-02-12T09:48:52;101850.25;;;37.90;17.35
50859;BME280;36826;47.514;19.056;2023-02-12T09:51:18;101847.72;;;37.73;17.31
50859;BME280;36826;47.514;19.056;2023-02-12T09:53:44;101843.44;;;37.04;17.65
50859;BME280;36826;47.514;19.056;2023-02-12T09:56:11;101850.16;;;37.13;17.64
50859;BME280;36826;47.514;19.056;2023-02-12T09:58:40;101855.28;;;37.73;16.92
50859;BME280;36826;47.514;19.056;2023-02-12T10:01:11;101852.50;;;36.68;17.98
50859;BME280;36826;47.514;19.056;2023-02-12T10:03:37;101855.19;;;36.04;18.03
50859;BME280;36826;47.514;19.056;2023-02-12T10:06:05;101855.84;;;31.55;21.27
50859;BME280;36826;47.514;19.056;2023-02-12T10:08:38;101853.19;;;29.92;22.05
50859;BME280;36826;47.514;19.056;2023-02-12T10:18:52;101859.69;;;24.98;26.50
50859;BME280;36826;47.514;19.056;2023-02-12T10:24:04;101875.72;;;27.85;24.12
50859;BME280;36826;47.514;19.056;2023-02-12T10:26:33;101875.16;;;23.84;27.52
50859;BME280;36826;47.514;19.056;2023-02-12T10:29:13;101877.84;;;24.16;27.64
50859;BME280;36826;47.514;19.056;2023-02-12T10:31:41;101880.16;;;27.11;25.16
50859;BME280;36826;47.514;19.056;2023-02-12T10:34:18;101877.78;;;27.56;24.55
50859;BME280;36826;47.514;19.056;2023-02-12T10:36:44;101894.41;;;20.62;31.26
50859;BME280;36826;47.514;19.056;2023-02-12T10:44:10;101885.97;;;24.77;27.49
50859;BME280;36826;47.514;19.056;2023-02-12T10:46:35;101883.81;;;22.53;29.27
50859;BME280;36826;47.514;19.056;2023-02-12T10:49:01;101878.22;;;23.66;28.42
50859;BME280;36826;47.514;19.056;2023-02-12T10:51:37;101887.22;;;23.12;28.96
50859;BME280;36826;47.514;19.056;2023-02-12T10:57:44;101867.16;;;24.59;27.78
50859;BME280;36826;47.514;19.056;2023-02-12T10:59:52;101879.34;;;23.17;28.76
50859;BME280;36826;47.514;19.056;2023-02-12T11:02:27;101869.34;;;25.31;26.92
50859;BME280;36826;47.514;19.056;2023-02-12T11:04:53;101886.44;;;23.35;27.96
50859;BME280;36826;47.514;19.056;2023-02-12T11:07:19;101887.88;;;22.66;29.09
50859;BME280;36826;47.514;19.056;2023-02-12T11:09:46;101889.97;;;23.43;28.00
50859;BME280;36826;47.514;19.056;2023-02-12T11:12:19;101888.72;;;22.66;28.51
50859;BME280;36826;47.514;19.056;2023-02-12T11:14:48;101884.41;;;24.60;26.75
50859;BME280;36826;47.514;19.056;2023-02-12T11:17:19;101873.50;;;26.28;25.77
50859;BME280;36826;47.514;19.056;2023-02-12T11:19:47;101870.44;;;25.15;26.73
50859;BME280;36826;47.514;19.056;2023-02-12T11:22:26;101870.81;;;26.63;25.63
50859;BME280;36826;47.514;19.056;2023-02-12T11:24:58;101873.56;;;27.67;24.73
50859;BME280;36826;47.514;19.056;2023-02-12T11:27:24;101877.28;;;24.20;27.72
50859;BME280;36826;47.514;19.056;2023-02-12T11:32:37;101879.28;;;27.04;25.64
50859;BME280;36826;47.514;19.056;2023-02-12T11:35:21;101878.88;;;26.37;25.91
50859;BME280;36826;47.514;19.056;2023-02-12T11:37:58;101870.00;;;27.18;25.52
50859;BME280;36826;47.514;19.056;2023-02-12T11:40:31;101876.97;;;27.63;24.98
50859;BME280;36826;47.514;19.056;2023-02-12T11:43:01;101876.56;;;27.93;24.60
50859;BME280;36826;47.514;19.056;2023-02-12T11:45:36;101886.38;;;27.33;25.11
50859;BME280;36826;47.514;19.056;2023-02-12T11:48:15;101880.31;;;27.45;25.03
50859;BME280;36826;47.514;19.056;2023-02-12T11:50:45;101877.69;;;24.47;27.77
50859;BME280;36826;47.514;19.056;2023-02-12T11:53:16;101882.09;;;22.36;29.98
50859;BME280;36826;47.514;19.056;2023-02-12T11:55:43;101888.63;;;23.39;29.21
50859;BME280;36826;47.514;19.056;2023-02-12T11:58:19;101878.63;;;25.45;27.02
50859;BME280;36826;47.514;19.056;2023-02-12T12:00:47;101884.66;;;25.77;26.94
50859;BME280;36826;47.514;19.056;2023-02-12T12:03:24;101871.19;;;26.25;26.19
50859;BME280;36826;47.514;19.056;2023-02-12T12:05:52;101869.22;;;25.97;26.20
50859;BME280;36826;47.514;19.056;2023-02-12T12:08:20;101877.47;;;24.72;27.43
50859;BME280;36826;47.514;19.056;2023-02-12T12:10:49;101873.22;;;24.70;27.62
50859;BME280;36826;47.514;19.056;2023-02-12T12:13:18;101874.72;;;24.04;27.86
50859;BME280;36826;47.514;19.056;2023-02-12T12:15:47;101863.25;;;23.77;28.18
50859;BME280;36826;47.514;19.056;2023-02-12T12:18:36;101865.44;;;25.98;26.31
50859;BME280;36826;47.514;19.056;2023-02-12T12:21:33;101866.38;;;25.62;26.34
50859;BME280;36826;47.514;19.056;2023-02-12T12:26:29;101860.03;;;25.62;25.80
50859;BME280;36826;47.514;19.056;2023-02-12T12:34:16;101859.72;;;26.50;25.15
50859;BME280;36826;47.514;19.056;2023-02-12T12:37:01;101857.44;;;26.03;25.42
50859;BME280;36826;47.514;19.056;2023-02-12T12:39:42;101850.44;;;26.86;24.86
50859;BME280;36826;47.514;19.056;2023-02-12T12:42:17;101863.34;;;26.92;24.81
50859;BME280;36826;47.514;19.056;2023-02-12T12:52:24;101859.16;;;26.61;25.18
50859;BME280;36826;47.514;19.056;2023-02-12T12:54:54;101868.63;;;26.52;25.04
50859;BME280;36826;47.514;19.056;2023-02-12T13:10:47;101860.44;;;26.09;25.20
50859;BME280;36826;47.514;19.056;2023-02-12T13:13:18;101860.75;;;26.42;25.58
50859;BME280;36826;47.514;19.056;2023-02-12T13:18:16;101859.28;;;26.18;24.98
50859;BME280;36826;47.514;19.056;2023-02-12T13:23:18;101863.81;;;24.34;27.38
50859;BME280;36826;47.514;19.056;2023-02-12T13:25:53;101865.44;;;23.58;28.25
50859;BME280;36826;47.514;19.056;2023-02-12T13:28:39;101873.00;;;22.68;29.37
50859;BME280;36826;47.514;19.056;2023-02-12T13:31:07;101880.63;;;20.37;33.47
50859;BME280;36826;47.514;19.056;2023-02-12T13:33:52;101888.59;;;20.57;33.18
50859;BME280;36826;47.514;19.056;2023-02-12T13:36:19;101881.75;;;18.60;35.71
50859;BME280;36826;47.514;19.056;2023-02-12T13:38:46;101887.97;;;18.80;35.56
50859;BME280;36826;47.514;19.056;2023-02-12T13:41:12;101885.25;;;18.80;35.86
50859;BME280;36826;47.514;19.056;2023-02-12T13:58:51;101893.56;;;19.62;34.90
50859;BME280;36826;47.514;19.056;2023-02-12T14:03:55;101902.59;;;19.81;34.40
50859;BME280;36826;47.514;19.056;2023-02-12T14:06:20;101897.56;;;20.04;34.09
50859;BME280;36826;47.514;19.056;2023-02-12T14:08:47;101889.63;;;20.82;33.20
50859;BME280;36826;47.514;19.056;2023-02-12T14:11:15;101888.63;;;20.65;33.20
50859;BME280;36826;47.514;19.056;2023-02-12T14:21:39;101896.50;;;20.23;33.89
50859;BME280;36826;47.514;19.056;2023-02-12T14:24:39;101902.47;;;20.01;34.03
50859;BME280;36826;47.514;19.056;2023-02-12T14:26:59;101899.47;;;21.09;32.63
50859;BME280;36826;47.514;19.056;2023-02-12T14:29:25;101896.19;;;20.71;32.65
50859;BME280;36826;47.514;19.056;2023-02-12T14:31:50;101906.47;;;20.33;33.34
50859;BME280;36826;47.514;19.056;2023-02-12T14:36:42;101913.63;;;19.98;33.89
50859;BME280;36826;47.514;19.056;2023-02-12T14:41:52;101912.78;;;19.33;34.62
50859;BME280;36826;47.514;19.056;2023-02-12T14:52:00;101917.47;;;19.41;34.98
50859;BME280;36826;47.514;19.056;2023-02-12T14:59:51;101920.97;;;20.42;33.97
50859;BME280;36826;47.514;19.056;2023-02-12T15:02:24;101918.91;;;19.35;35.19
50859;BME280;36826;47.514;19.056;2023-02-12T15:04:51;101925.00;;;19.65;34.57
50859;BME280;36826;47.514;19.056;2023-02-12T15:07:21;101918.31;;;19.87;33.70
50859;BME280;36826;47.514;19.056;2023-02-12T15:09:54;101920.19;;;20.05;33.35
50859;BME280;36826;47.514;19.056;2023-02-12T15:14:54;101918.97;;;19.25;34.76